Main page
METAR-TAF:

METAR-TAF

Airports :

Leuchars, Scotland

Leuchars Station

latitude: 56-23N, longitude: 002-52W, elevation: 12 m

Current weather observation

The report was made 1 hour and 7 minutes ago, at 13:50 UTC
Wind 17 kt from the West/Southwest
Temperature 3°C
Humidity 87%
Pressure 1004 hPa
Visibility 10 km or more
no clouds below 1500 m and no cumulonimbus

METAR: EGQL 241350Z 25017KT CAVOK 03/01 Q1004 BLU

Time: 14:57 (14:57 UTC)

Forecast

The report was made 1 hour and 27 minutes ago, at 13:30 UTC
Forecast valid from 24 at 15 UTC to 24 at 24 UTC
Wind 14 kt from the West/Southwest
Visibility 10 km or more
no clouds below 1500 m and no cumulonimbus

TAF: EGQL 241330Z 2415/2424 25014KT CAVOK

Weather observations and forecasts of more than 4000 airports (METAR and TAF reports).

The available stations are represented by yellow and red dots on the map.

Hover mouse over dot to see the name of the station.

Then click to see weather observations and forecasts.

To change the map : click on the green buttons with a black cross to zoom in, on the green button with a dash to zoom out, or on the green arrows for adjacent maps.


METAR-TAF: